Time;durP1;ratioP1;P1;durP2;ratioP2;P2;SDS_P1;SDS_P2;PMS_P1;PMS_P2;Temp;Humidity;BMP_temperature;BMP_pressure;BME280_temperature;BME280_humidity;BME280_pressure;Samples;Min_cycle;Max_cycle;Signal;HPM_P1;HPM_P2
2021/03/22 00:01:48;;;;;;;;;;;15.20;53.80;;;;;;4937760;29;19917;-61
2021/03/22 00:04:13;;;;;;;;;;;15.20;53.90;;;;;;4937900;28;20018;-61
2021/03/22 00:06:39;;;;;;;;;;;15.00;53.80;;;;;;4937438;29;19915;-61
2021/03/22 00:09:05;;;;;;;;;;;15.20;54.00;;;;;;4937586;29;20029;-61
2021/03/22 00:11:30;;;;;;;;;;;15.10;53.90;;;;;;4937761;29;20688;-61
2021/03/22 00:13:55;;;;;;;;;;;15.10;54.00;;;;;;4937593;29;19918;-61
2021/03/22 00:16:21;;;;;;;;;;;15.50;54.20;;;;;;4920433;29;19911;-61
2021/03/22 00:18:47;;;;;;;;;;;15.10;54.00;;;;;;4937705;29;20344;-61
2021/03/22 00:21:13;;;;;;;;;;;15.00;54.00;;;;;;4937681;29;20369;-61
2021/03/22 00:23:39;;;;;;;;;;;15.10;54.00;;;;;;4937738;29;19910;-61
2021/03/22 00:26:05;;;;;;;;;;;15.10;54.10;;;;;;4937387;29;20329;-61
2021/03/22 00:28:32;;;;;;;;;;;15.10;54.10;;;;;;4920310;29;19911;-61
2021/03/22 00:30:57;;;;;;;;;;;15.00;54.10;;;;;;4937607;29;19911;-61
2021/03/22 00:33:23;;;;;;;;;;;15.10;54.20;;;;;;4937218;29;20318;-61
2021/03/22 00:35:49;;;;;;;;;;;15.00;54.20;;;;;;4920133;29;19962;-61
2021/03/22 00:38:15;;;;;;;;;;;14.90;54.10;;;;;;4937040;29;20404;-60
2021/03/22 00:40:42;;;;;;;;;;;14.90;54.10;;;;;;4937291;29;19907;-61
2021/03/22 00:43:08;;;;;;;;;;;15.00;54.30;;;;;;4936933;29;19906;-61
2021/03/22 00:45:33;;;;;;;;;;;14.90;54.20;;;;;;4919908;29;19914;-61
2021/03/22 00:47:59;;;;;;;;;;;14.80;54.20;;;;;;4936349;29;19915;-61
2021/03/22 00:50:24;;;;;;;;;;;14.80;54.20;;;;;;4919719;29;20001;-61
2021/03/22 00:52:50;;;;;;;;;;;14.90;54.30;;;;;;4936987;29;20276;-61
2021/03/22 00:55:15;;;;;;;;;;;14.90;54.30;;;;;;4936889;29;19910;-61
2021/03/22 00:57:41;;;;;;;;;;;14.90;54.40;;;;;;4936934;29;19911;-61
2021/03/22 01:00:07;;;;;;;;;;;14.90;54.40;;;;;;4937190;29;19914;-61
2021/03/22 01:02:33;;;;;;;;;;;14.90;54.40;;;;;;4936582;29;20280;-61
2021/03/22 01:04:58;;;;;;;;;;;14.90;54.50;;;;;;4936989;28;19919;-61
2021/03/22 01:07:24;;;;;;;;;;;14.90;54.50;;;;;;4936597;29;19921;-59
2021/03/22 01:09:50;;;;;;;;;;;14.80;54.50;;;;;;4936855;29;19907;-61
2021/03/22 01:12:15;;;;;;;;;;;14.80;54.50;;;;;;4936822;29;19907;-61
2021/03/22 01:14:40;;;;;;;;;;;14.90;54.60;;;;;;4936512;29;19911;-60
2021/03/22 01:17:06;;;;;;;;;;;14.70;54.50;;;;;;4936459;29;19910;-61
2021/03/22 01:19:32;;;;;;;;;;;14.80;55.20;;;;;;4936633;29;19910;-61
2021/03/22 01:21:59;;;;;;;;;;;14.80;54.60;;;;;;4936337;29;20412;-61
2021/03/22 01:24:25;;;;;;;;;;;14.80;54.60;;;;;;4936531;29;20321;-61
2021/03/22 01:26:52;;;;;;;;;;;14.80;54.60;;;;;;4936197;29;19915;-61
2021/03/22 01:29:19;;;;;;;;;;;14.80;54.70;;;;;;4935881;29;19911;-61
2021/03/22 01:31:45;;;;;;;;;;;14.80;54.70;;;;;;4935854;29;19906;-61
2021/03/22 01:34:10;;;;;;;;;;;14.80;54.80;;;;;;4936028;29;20511;-61
2021/03/22 01:36:36;;;;;;;;;;;14.60;54.70;;;;;;4935988;29;19911;-60
2021/03/22 01:39:07;;;;;;;;;;;14.70;54.80;;;;;;4936098;29;19914;-61
2021/03/22 01:41:35;;;;;;;;;;;15.00;54.90;;;;;;4936009;29;19907;-60
2021/03/22 01:44:09;;;;;;;;;;;14.70;54.70;;;;;;4935896;29;19907;-61
2021/03/22 01:46:36;;;;;;;;;;;14.70;54.90;;;;;;4936154;29;20321;-61
2021/03/22 01:49:04;;;;;;;;;;;14.60;54.80;;;;;;4935918;29;19906;-61
2021/03/22 01:51:30;;;;;;;;;;;14.70;54.90;;;;;;4935965;29;20001;-61
2021/03/22 01:53:56;;;;;;;;;;;14.50;54.80;;;;;;4935647;29;19956;-61
2021/03/22 01:56:21;;;;;;;;;;;14.70;54.90;;;;;;4935653;29;19911;-61
2021/03/22 01:58:47;;;;;;;;;;;14.70;54.90;;;;;;4935383;29;19914;-61
2021/03/22 02:01:13;;;;;;;;;;;14.70;55.00;;;;;;4935677;29;19910;-60
2021/03/22 02:03:38;;;;;;;;;;;14.70;55.00;;;;;;4935769;28;19973;-60
2021/03/22 02:06:04;;;;;;;;;;;14.50;54.90;;;;;;4935576;29;19907;-61
2021/03/22 02:08:38;;;;;;;;;;;14.60;55.00;;;;;;4935773;29;20014;-61
2021/03/22 02:11:04;;;;;;;;;;;14.60;55.00;;;;;;4935800;29;19974;-61
2021/03/22 02:13:36;;;;;;;;;;;14.50;55.00;;;;;;4935284;29;19914;-61
2021/03/22 02:16:20;;;;;;;;;;;14.60;55.00;;;;;;4935661;29;19941;-61
2021/03/22 02:19:02;;;;;;;;;;;14.60;55.10;;;;;;4935690;29;20001;-61
2021/03/22 02:21:36;;;;;;;;;;;14.60;55.10;;;;;;4935346;29;19910;-61
2021/03/22 02:24:08;;;;;;;;;;;14.40;55.00;;;;;;4935345;29;20326;-61
2021/03/22 02:26:39;;;;;;;;;;;14.60;55.10;;;;;;4935528;29;19921;-61
2021/03/22 02:29:19;;;;;;;;;;;14.60;55.10;;;;;;4935616;29;19906;-60
2021/03/22 02:32:00;;;;;;;;;;;14.50;55.10;;;;;;4918046;29;20358;-60
2021/03/22 02:34:52;;;;;;;;;;;14.50;55.10;;;;;;4935267;29;19907;-61
2021/03/22 02:37:20;;;;;;;;;;;14.50;55.10;;;;;;4898614;29;19906;-61
2021/03/22 02:39:51;;;;;;;;;;;14.50;55.20;;;;;;4935303;29;19907;-61
2021/03/22 02:42:18;;;;;;;;;;;14.50;55.20;;;;;;4935108;29;20385;-61
2021/03/22 02:44:43;;;;;;;;;;;14.50;55.90;;;;;;4917906;29;19911;-61
2021/03/22 02:47:19;;;;;;;;;;;14.50;55.30;;;;;;4934958;29;19915;-61
2021/03/22 02:49:45;;;;;;;;;;;14.40;55.30;;;;;;4934891;29;19942;-61
2021/03/22 02:52:23;;;;;;;;;;;14.40;55.30;;;;;;4935324;29;19973;-61
2021/03/22 02:54:56;;;;;;;;;;;14.50;55.30;;;;;;4934926;29;19910;-61
2021/03/22 02:57:29;;;;;;;;;;;14.50;55.30;;;;;;4935045;29;19993;-61
2021/03/22 02:59:57;;;;;;;;;;;14.50;55.30;;;;;;4934848;29;19978;-61
2021/03/22 03:02:24;;;;;;;;;;;14.40;55.30;;;;;;4917825;29;19938;-60
2021/03/22 03:04:49;;;;;;;;;;;14.40;55.40;;;;;;4935027;28;19918;-60
2021/03/22 03:07:20;;;;;;;;;;;14.40;55.40;;;;;;4934734;29;19914;-61
2021/03/22 03:09:45;;;;;;;;;;;14.40;55.30;;;;;;4935280;29;19907;-61
2021/03/22 03:12:29;;;;;;;;;;;14.40;55.40;;;;;;4938787;29;19917;-61
2021/03/22 03:14:56;;;;;;;;;;;14.40;55.40;;;;;;4938598;29;19913;-61
2021/03/22 03:17:22;;;;;;;;;;;14.40;55.50;;;;;;4938754;29;19911;-61
2021/03/22 03:19:51;;;;;;;;;;;14.30;55.40;;;;;;4938508;29;20535;-61
2021/03/22 03:22:17;;;;;;;;;;;14.40;55.40;;;;;;4938324;29;19926;-61
2021/03/22 03:24:43;;;;;;;;;;;14.20;55.40;;;;;;4938742;29;19907;-61
2021/03/22 03:27:09;;;;;;;;;;;14.30;55.50;;;;;;4938083;29;20329;-61
2021/03/22 03:29:35;;;;;;;;;;;14.30;55.50;;;;;;4938370;29;19914;-61
2021/03/22 03:32:01;;;;;;;;;;;14.30;55.50;;;;;;4938438;29;19907;-61
2021/03/22 03:34:27;;;;;;;;;;;14.30;55.50;;;;;;4938173;29;20005;-61
2021/03/22 03:36:52;;;;;;;;;;;14.30;55.50;;;;;;4938325;29;20002;-61
2021/03/22 03:39:18;;;;;;;;;;;14.30;55.60;;;;;;4938218;29;19910;-61
2021/03/22 03:41:50;;;;;;;;;;;15.10;56.00;;;;;;4938311;29;19911;-61
2021/03/22 03:44:16;;;;;;;;;;;14.30;55.50;;;;;;4937782;29;20001;-61
2021/03/22 03:46:41;;;;;;;;;;;14.20;55.60;;;;;;4938211;29;19926;-61
2021/03/22 03:49:07;;;;;;;;;;;14.30;55.60;;;;;;4938284;29;19962;-61
2021/03/22 03:51:34;;;;;;;;;;;14.30;55.70;;;;;;4938013;29;19907;-61
2021/03/22 03:53:59;;;;;;;;;;;14.20;55.70;;;;;;4937916;29;19914;-61
2021/03/22 03:56:26;;;;;;;;;;;14.10;55.60;;;;;;4938184;29;19906;-61
2021/03/22 03:58:52;;;;;;;;;;;14.20;55.70;;;;;;4937649;29;19957;-61
2021/03/22 04:01:18;;;;;;;;;;;14.10;55.60;;;;;;4937739;29;20009;-61
2021/03/22 04:03:43;;;;;;;;;;;14.20;55.20;;;;;;4938213;28;19942;-61
2021/03/22 04:06:09;;;;;;;;;;;14.20;55.80;;;;;;4937929;29;20389;-61
2021/03/22 04:08:36;;;;;;;;;;;14.10;55.70;;;;;;4937994;29;19916;-61
2021/03/22 04:11:03;;;;;;;;;;;13.90;55.60;;;;;;4937995;29;19985;-61
2021/03/22 04:13:28;;;;;;;;;;;14.20;55.80;;;;;;4937752;29;19918;-61
2021/03/22 04:15:54;;;;;;;;;;;14.10;55.70;;;;;;4937866;29;19907;-62
2021/03/22 04:18:20;;;;;;;;;;;14.10;55.70;;;;;;4937713;29;19913;-61
2021/03/22 04:20:45;;;;;;;;;;;14.10;55.80;;;;;;4937648;29;20350;-61
2021/03/22 04:23:11;;;;;;;;;;;14.10;55.80;;;;;;4936462;29;19910;-61
2021/03/22 04:25:36;;;;;;;;;;;14.00;55.80;;;;;;4937576;29;19911;-62
2021/03/22 04:28:02;;;;;;;;;;;14.10;55.80;;;;;;4937621;29;20412;-61
2021/03/22 04:30:28;;;;;;;;;;;14.10;55.80;;;;;;4937345;29;19957;-61
2021/03/22 04:32:53;;;;;;;;;;;14.10;55.80;;;;;;4937529;29;19954;-61
2021/03/22 04:35:20;;;;;;;;;;;14.10;55.90;;;;;;4937391;29;20436;-61
2021/03/22 04:37:46;;;;;;;;;;;14.30;56.00;;;;;;4937163;29;19906;-61
2021/03/22 04:40:13;;;;;;;;;;;13.90;55.80;;;;;;4937330;29;19911;-61
2021/03/22 04:42:39;;;;;;;;;;;14.10;55.80;;;;;;4937034;29;19913;-61
2021/03/22 04:45:05;;;;;;;;;;;14.10;55.90;;;;;;4937300;29;19907;-61
2021/03/22 04:47:31;;;;;;;;;;;14.10;55.90;;;;;;4936981;29;20365;-61
2021/03/22 04:49:56;;;;;;;;;;;14.10;56.00;;;;;;4937301;29;19917;-61
2021/03/22 04:52:22;;;;;;;;;;;14.10;56.00;;;;;;4936988;29;19907;-61
2021/03/22 04:54:47;;;;;;;;;;;14.10;56.00;;;;;;4937151;29;19929;-61
2021/03/22 04:57:22;;;;;;;;;;;14.00;56.00;;;;;;4936901;29;19993;-61
2021/03/22 04:59:48;;;;;;;;;;;14.00;56.00;;;;;;4936906;29;19918;-61
2021/03/22 05:02:13;;;;;;;;;;;12.00;55.00;;;;;;4936795;29;20277;-61
2021/03/22 05:04:39;;;;;;;;;;;14.00;56.00;;;;;;4936937;28;20013;-61
2021/03/22 05:07:04;;;;;;;;;;;13.80;56.00;;;;;;4936523;29;19921;-61
2021/03/22 05:09:37;;;;;;;;;;;14.00;56.00;;;;;;4936944;29;19926;-61
2021/03/22 05:12:03;;;;;;;;;;;14.00;56.10;;;;;;4936819;29;20150;-61
2021/03/22 05:14:29;;;;;;;;;;;14.00;56.10;;;;;;4936620;29;19993;-61
2021/03/22 05:16:54;;;;;;;;;;;13.70;55.90;;;;;;4936785;29;20418;-61
2021/03/22 05:19:20;;;;;;;;;;;14.00;56.10;;;;;;4936692;29;19907;-61
2021/03/22 05:21:46;;;;;;;;;;;14.00;56.10;;;;;;4936131;29;19907;-61
2021/03/22 05:24:11;;;;;;;;;;;14.00;56.20;;;;;;4936365;29;19947;-61
2021/03/22 05:26:37;;;;;;;;;;;14.00;56.20;;;;;;4936301;29;20023;-61
2021/03/22 05:29:03;;;;;;;;;;;13.90;56.10;;;;;;4936247;29;19911;-61
2021/03/22 05:31:30;;;;;;;;;;;14.00;56.20;;;;;;4936400;29;20009;-61
2021/03/22 05:33:56;;;;;;;;;;;13.90;56.10;;;;;;4935885;29;20337;-59
2021/03/22 05:36:22;;;;;;;;;;;14.00;56.20;;;;;;4936196;29;19946;-61
2021/03/22 05:38:47;;;;;;;;;;;14.00;56.20;;;;;;4936110;29;19934;-61
2021/03/22 05:41:16;;;;;;;;;;;14.00;56.20;;;;;;4935963;29;19910;-61
2021/03/22 05:43:42;;;;;;;;;;;13.90;56.20;;;;;;4919065;29;19965;-61
2021/03/22 05:46:26;;;;;;;;;;;13.90;56.30;;;;;;4936405;29;19911;-61
2021/03/22 05:49:05;;;;;;;;;;;13.90;56.20;;;;;;4936246;29;19923;-61
2021/03/22 05:51:33;;;;;;;;;;;13.90;56.20;;;;;;4936043;29;19906;-61
2021/03/22 05:54:11;;;;;;;;;;;13.90;56.30;;;;;;4936104;29;19962;-61
2021/03/22 05:56:37;;;;;;;;;;;13.90;56.30;;;;;;4936133;29;19910;-61
2021/03/22 05:59:21;;;;;;;;;;;13.90;56.40;;;;;;4935770;29;19907;-60
2021/03/22 06:01:48;;;;;;;;;;;13.90;56.30;;;;;;4935857;29;19911;-61
2021/03/22 06:04:29;;;;;;;;;;;13.90;56.50;;;;;;4936123;28;19918;-61
2021/03/22 06:06:56;;;;;;;;;;;13.90;56.70;;;;;;4935776;29;19963;-61
2021/03/22 06:09:43;;;;;;;;;;;13.90;57.00;;;;;;4935911;29;20010;-61
2021/03/22 06:12:27;;;;;;;;;;;14.10;57.00;;;;;;4935835;29;19910;-57
2021/03/22 06:14:52;;;;;;;;;;;14.10;57.00;;;;;;4935753;29;20433;-58
2021/03/22 06:17:24;;;;;;;;;;;14.20;57.10;;;;;;4935514;29;19964;-58
2021/03/22 06:19:53;;;;;;;;;;;14.30;57.20;;;;;;4935541;29;19961;-60
2021/03/22 06:22:21;;;;;;;;;;;14.40;57.00;;;;;;4935443;29;19911;-60
2021/03/22 06:24:46;;;;;;;;;;;14.50;57.00;;;;;;4935729;29;19977;-59
2021/03/22 06:27:13;;;;;;;;;;;14.50;56.90;;;;;;4935361;29;19915;-60
2021/03/22 06:29:39;;;;;;;;;;;14.60;56.80;;;;;;4935410;29;19910;-59
2021/03/22 06:32:05;;;;;;;;;;;14.60;56.70;;;;;;4918348;29;20014;-60
2021/03/22 06:34:51;;;;;;;;;;;14.70;56.70;;;;;;4935567;29;19923;-60
2021/03/22 06:37:18;;;;;;;;;;;14.70;56.70;;;;;;4934614;29;20389;-60
2021/03/22 06:39:44;;;;;;;;;;;14.80;56.60;;;;;;4935382;29;19961;-60
2021/03/22 06:42:21;;;;;;;;;;;14.80;56.50;;;;;;4935547;29;20276;-60
2021/03/22 06:44:47;;;;;;;;;;;14.90;56.40;;;;;;4934819;29;20255;-60
2021/03/22 06:47:12;;;;;;;;;;;15.00;56.40;;;;;;4935108;29;19926;-60
2021/03/22 06:49:39;;;;;;;;;;;14.90;56.20;;;;;;4934575;29;19958;-61
2021/03/22 06:52:06;;;;;;;;;;;15.00;56.30;;;;;;4935134;29;19914;-58
2021/03/22 06:54:37;;;;;;;;;;;15.10;56.40;;;;;;4934014;29;19989;-60
2021/03/22 06:57:05;;;;;;;;;;;15.10;56.20;;;;;;4934945;29;19913;-60
2021/03/22 06:59:31;;;;;;;;;;;15.20;56.10;;;;;;4935341;29;19906;-63
2021/03/22 07:02:09;;;;;;;;;;;15.10;56.00;;;;;;4934955;29;19911;-58
2021/03/22 07:04:41;;;;;;;;;;;14.90;55.80;;;;;;4935220;28;19926;-59
2021/03/22 07:07:06;;;;;;;;;;;15.30;55.90;;;;;;4935103;29;19918;-59
2021/03/22 07:09:33;;;;;;;;;;;15.30;55.80;;;;;;4935243;29;19917;-60
2021/03/22 07:11:59;;;;;;;;;;;15.20;55.60;;;;;;4934978;29;20039;-52
2021/03/22 07:14:25;;;;;;;;;;;15.30;55.60;;;;;;4935179;29;19906;-57
2021/03/22 07:17:01;;;;;;;;;;;15.30;55.50;;;;;;4934807;29;19945;-59
2021/03/22 07:19:26;;;;;;;;;;;15.30;55.40;;;;;;4918125;29;19906;-56
2021/03/22 07:21:53;;;;;;;;;;;15.30;55.30;;;;;;4935144;29;19910;-56
2021/03/22 07:24:39;;;;;;;;;;;15.20;55.30;;;;;;4935082;29;19917;-57
2021/03/22 07:27:23;;;;;;;;;;;15.30;55.20;;;;;;4917540;29;19911;-57
2021/03/22 07:30:01;;;;;;;;;;;15.30;55.10;;;;;;4934658;29;20373;-57
2021/03/22 07:32:26;;;;;;;;;;;15.40;55.10;;;;;;4934585;29;19906;-57
2021/03/22 07:35:18;;;;;;;;;;;15.30;55.20;;;;;;4933973;29;19910;-57
2021/03/22 07:37:47;;;;;;;;;;;15.30;55.20;;;;;;4934909;29;19954;-55
2021/03/22 07:40:15;;;;;;;;;;;15.30;55.30;;;;;;4934396;29;19911;-53
2021/03/22 07:43:03;;;;;;;;;;;15.30;55.30;;;;;;4934781;29;19929;-50
2021/03/22 07:45:36;;;;;;;;;;;15.30;55.40;;;;;;4889681;29;19913;-49
2021/03/22 07:48:04;;;;;;;;;;;15.30;55.20;;;;;;4917232;29;19915;-54
2021/03/22 07:50:48;;;;;;;;;;;15.40;55.40;;;;;;4934297;29;19907;-51
2021/03/22 07:53:19;;;;;;;;;;;15.30;55.00;;;;;;4934724;29;19906;-53
2021/03/22 07:55:51;;;;;;;;;;;15.20;54.90;;;;;;4935069;29;20314;-53
2021/03/22 07:58:35;;;;;;;;;;;15.40;54.90;;;;;;4937882;29;19906;-52
2021/03/22 08:01:21;;;;;;;;;;;15.40;54.90;;;;;;4937838;29;20013;-53
2021/03/22 08:03:58;;;;;;;;;;;15.40;54.90;;;;;;4937974;29;19906;-51
2021/03/22 08:06:31;;;;;;;;;;;15.40;55.00;;;;;;4918673;29;20425;-53
2021/03/22 08:08:57;;;;;;;;;;;15.50;55.00;;;;;;4918803;29;19914;-51
2021/03/22 08:11:33;;;;;;;;;;;15.40;54.90;;;;;;4918611;29;20338;-51
2021/03/22 08:14:07;;;;;;;;;;;15.50;54.80;;;;;;4918628;29;20269;-54
2021/03/22 08:16:54;;;;;;;;;;;15.50;54.80;;;;;;4918553;29;20396;-50
2021/03/22 08:19:40;;;;;;;;;;;15.50;54.80;;;;;;4918486;29;19907;-53
2021/03/22 08:22:12;;;;;;;;;;;15.50;54.80;;;;;;4901548;29;20365;-53
2021/03/22 08:24:38;;;;;;;;;;;15.50;54.70;;;;;;4918635;29;19910;-56
2021/03/22 08:27:14;;;;;;;;;;;15.50;54.90;;;;;;4918266;29;20005;-52
2021/03/22 08:29:52;;;;;;;;;;;15.50;54.80;;;;;;4918326;29;19911;-51
2021/03/22 08:32:32;;;;;;;;;;;15.50;54.80;;;;;;4918228;29;20061;-51
2021/03/22 08:35:18;;;;;;;;;;;16.00;55.00;;;;;;4918255;29;20290;-52
2021/03/22 08:37:53;;;;;;;;;;;15.60;54.80;;;;;;4918526;29;19910;-54
2021/03/22 08:40:41;;;;;;;;;;;15.50;54.80;;;;;;4918493;29;19907;-52
2021/03/22 08:43:13;;;;;;;;;;;15.50;54.80;;;;;;4916897;29;19943;-53
2021/03/22 08:45:49;;;;;;;;;;;15.20;54.70;;;;;;4918332;29;19982;-54
2021/03/22 08:48:24;;;;;;;;;;;15.60;54.80;;;;;;4918298;29;19922;-51
2021/03/22 08:50:50;;;;;;;;;;;15.60;54.70;;;;;;4918201;29;20017;-51
2021/03/22 08:53:17;;;;;;;;;;;15.60;54.70;;;;;;4918262;29;19997;-55
2021/03/22 08:55:47;;;;;;;;;;;15.40;54.70;;;;;;4901262;29;19911;-49
2021/03/22 08:58:27;;;;;;;;;;;15.60;54.80;;;;;;4917774;29;19907;-55
2021/03/22 09:00:55;;;;;;;;;;;15.60;54.70;;;;;;4917978;29;19950;-56
2021/03/22 09:03:28;;;;;;;;;;;15.50;54.40;;;;;;4918038;29;20401;-54
2021/03/22 09:06:15;;;;;;;;;;;15.50;54.40;;;;;;4933247;29;20354;-54
2021/03/22 09:09:00;;;;;;;;;;;15.50;54.50;;;;;;4918700;29;19915;-55
2021/03/22 09:11:26;;;;;;;;;;;15.30;54.50;;;;;;4936521;29;19914;-54
2021/03/22 09:13:54;;;;;;;;;;;15.50;54.70;;;;;;4936772;29;19911;-56
2021/03/22 09:16:23;;;;;;;;;;;15.40;54.70;;;;;;4936300;29;20357;-55
2021/03/22 09:19:21;;;;;;;;;;;15.40;54.80;;;;;;4936311;29;19918;-54
2021/03/22 09:21:48;;;;;;;;;;;15.40;54.80;;;;;;4914285;29;20282;-51
2021/03/22 09:24:32;;;;;;;;;;;15.20;54.70;;;;;;4936456;29;20326;-55
2021/03/22 09:26:58;;;;;;;;;;;15.50;54.80;;;;;;4936112;29;19973;-54
2021/03/22 09:29:32;;;;;;;;;;;15.50;54.90;;;;;;4936426;29;19906;-53
2021/03/22 09:31:59;;;;;;;;;;;15.40;54.80;;;;;;4936447;29;20127;-56
2021/03/22 09:34:39;;;;;;;;;;;15.50;54.60;;;;;;4936339;29;20254;-54
2021/03/22 09:37:23;;;;;;;;;;;15.50;54.60;;;;;;4918816;29;19914;-55
2021/03/22 09:39:49;;;;;;;;;;;15.60;54.70;;;;;;4935764;29;19911;-54
2021/03/22 09:42:17;;;;;;;;;;;15.60;54.80;;;;;;4935896;29;19961;-55
2021/03/22 09:44:54;;;;;;;;;;;15.60;55.00;;;;;;4936074;29;19917;-53
2021/03/22 09:47:22;;;;;;;;;;;15.60;55.20;;;;;;4935746;29;20275;-50
2021/03/22 09:50:04;;;;;;;;;;;15.50;55.30;;;;;;4936180;29;19970;-53
2021/03/22 09:52:38;;;;;;;;;;;15.70;55.90;;;;;;4935623;29;19906;-52
2021/03/22 09:55:22;;;;;;;;;;;15.70;55.20;;;;;;4935929;29;19977;-54
2021/03/22 09:57:48;;;;;;;;;;;15.70;55.30;;;;;;4918578;29;19910;-50
2021/03/22 10:00:27;;;;;;;;;;;15.60;55.40;;;;;;4935972;29;19989;-53
2021/03/22 10:02:54;;;;;;;;;;;15.70;55.30;;;;;;4935443;29;19917;-53
2021/03/22 10:05:26;;;;;;;;;;;15.70;55.40;;;;;;4935444;29;19918;-51
2021/03/22 10:08:09;;;;;;;;;;;15.80;55.50;;;;;;4918370;29;19966;-48
2021/03/22 10:10:38;;;;;;;;;;;15.80;55.60;;;;;;4935769;29;20363;-48
2021/03/22 10:13:17;;;;;;;;;;;15.80;55.30;;;;;;4935492;29;19997;-54
2021/03/22 10:15:51;;;;;;;;;;;15.70;55.00;;;;;;4935484;29;19907;-55
2021/03/22 10:18:16;;;;;;;;;;;15.20;55.50;;;;;;4935238;29;19906;-57
2021/03/22 10:20:43;;;;;;;;;;;15.60;56.60;;;;;;4934449;29;19927;-56
2021/03/22 10:23:19;;;;;;;;;;;15.60;57.90;;;;;;4935516;29;20313;-57
2021/03/22 10:25:45;;;;;;;;;;;15.60;58.40;;;;;;4935328;29;19907;-57
2021/03/22 10:28:20;;;;;;;;;;;15.40;59.00;;;;;;4935626;29;19921;-56
2021/03/22 10:31:03;;;;;;;;;;;15.60;59.40;;;;;;4935619;29;19970;-57
2021/03/22 10:33:28;;;;;;;;;;;15.60;59.40;;;;;;4935264;29;19910;-58
2021/03/22 10:35:56;;;;;;;;;;;15.50;62.00;;;;;;4935407;29;20504;-57
2021/03/22 10:38:28;;;;;;;;;;;15.70;64.40;;;;;;4935107;29;19906;-57
2021/03/22 10:40:55;;;;;;;;;;;15.70;63.40;;;;;;4935541;29;19912;-57
2021/03/22 10:43:35;;;;;;;;;;;15.70;63.30;;;;;;4935410;29;19985;-57
2021/03/22 10:46:13;;;;;;;;;;;15.90;64.60;;;;;;4935119;29;19906;-61
2021/03/22 10:48:39;;;;;;;;;;;16.00;63.70;;;;;;4935341;29;20325;-55
2021/03/22 10:51:09;;;;;;;;;;;16.00;63.80;;;;;;4934910;29;19914;-57
2021/03/22 10:53:50;;;;;;;;;;;16.20;64.90;;;;;;4918334;29;19907;-57
2021/03/22 10:56:19;;;;;;;;;;;16.20;65.50;;;;;;4935090;29;19906;-56
2021/03/22 10:58:45;;;;;;;;;;;16.00;66.10;;;;;;4935281;29;19907;-56
2021/03/22 11:01:11;;;;;;;;;;;16.20;66.30;;;;;;4935133;29;20272;-54
2021/03/22 11:03:36;;;;;;;;;;;16.20;66.50;;;;;;4935108;29;19911;-55
2021/03/22 11:06:09;;;;;;;;;;;16.10;67.20;;;;;;4917573;29;19977;-56
2021/03/22 11:08:39;;;;;;;;;;;16.20;67.20;;;;;;4934767;29;19914;-53
2021/03/22 11:11:09;;;;;;;;;;;16.30;67.40;;;;;;4935235;29;20005;-56
2021/03/22 11:13:37;;;;;;;;;;;16.30;67.80;;;;;;4941286;29;19907;-56
2021/03/22 11:16:06;;;;;;;;;;;16.30;68.40;;;;;;4934998;29;19906;-56
2021/03/22 11:18:32;;;;;;;;;;;16.30;68.40;;;;;;4935075;29;19989;-56
2021/03/22 11:20:58;;;;;;;;;;;16.20;68.20;;;;;;4934786;29;20325;-54
2021/03/22 11:23:30;;;;;;;;;;;16.20;68.40;;;;;;4917638;29;19907;-56
2021/03/22 11:25:56;;;;;;;;;;;16.30;69.00;;;;;;4934618;29;19954;-56
2021/03/22 11:28:21;;;;;;;;;;;16.30;68.80;;;;;;4933906;29;19982;-54
2021/03/22 11:30:53;;;;;;;;;;;16.20;68.20;;;;;;4934928;29;20620;-54
2021/03/22 11:33:24;;;;;;;;;;;16.20;67.80;;;;;;4938004;29;19914;-54
2021/03/22 11:36:01;;;;;;;;;;;16.20;68.00;;;;;;4938182;29;19907;-55
2021/03/22 11:38:30;;;;;;;;;;;16.10;68.70;;;;;;4944554;29;19906;-48
2021/03/22 11:40:56;;;;;;;;;;;16.10;68.10;;;;;;4938141;29;19907;-50
2021/03/22 11:43:24;;;;;;;;;;;16.00;68.00;;;;;;4938387;29;19906;-49
2021/03/22 11:45:50;;;;;;;;;;;16.00;67.50;;;;;;4938003;29;19993;-50
2021/03/22 11:48:19;;;;;;;;;;;15.90;67.10;;;;;;4938183;29;20385;-49
2021/03/22 11:50:45;;;;;;;;;;;15.90;66.20;;;;;;4937313;29;19911;-55
2021/03/22 11:53:19;;;;;;;;;;;15.80;67.60;;;;;;4938077;29;20269;-55
2021/03/22 11:55:52;;;;;;;;;;;15.80;67.20;;;;;;4937770;29;19907;-55
2021/03/22 11:58:40;;;;;;;;;;;15.70;67.90;;;;;;4938053;29;20011;-54
2021/03/22 12:01:13;;;;;;;;;;;15.70;69.20;;;;;;4937714;29;20016;-55
2021/03/22 12:03:39;;;;;;;;;;;15.70;69.50;;;;;;4937945;29;20277;-54
2021/03/22 12:06:06;;;;;;;;;;;15.60;69.50;;;;;;4937448;28;19918;-54
2021/03/22 12:08:36;;;;;;;;;;;15.50;69.50;;;;;;4937666;29;19914;-53
2021/03/22 12:11:03;;;;;;;;;;;15.60;70.00;;;;;;4937811;29;20378;-52
2021/03/22 12:13:29;;;;;;;;;;;15.60;70.20;;;;;;4937801;29;19907;-54
2021/03/22 12:15:55;;;;;;;;;;;15.50;70.20;;;;;;4937437;29;19907;-56
2021/03/22 12:18:28;;;;;;;;;;;15.60;70.60;;;;;;4937519;29;20302;-58
2021/03/22 12:20:54;;;;;;;;;;;15.50;70.70;;;;;;4937665;29;19917;-56
2021/03/22 12:23:19;;;;;;;;;;;15.40;71.40;;;;;;4937406;29;19906;-57
2021/03/22 12:25:45;;;;;;;;;;;15.50;71.60;;;;;;4919990;29;20350;-56
2021/03/22 12:28:10;;;;;;;;;;;15.60;72.00;;;;;;4936951;29;19914;-57
2021/03/22 12:30:36;;;;;;;;;;;15.60;72.10;;;;;;4937319;29;19946;-57
2021/03/22 12:33:02;;;;;;;;;;;15.70;72.10;;;;;;4920070;29;19962;-56
2021/03/22 12:35:30;;;;;;;;;;;15.50;71.80;;;;;;4937458;29;19907;-56
2021/03/22 12:37:57;;;;;;;;;;;15.70;72.10;;;;;;4937284;29;19911;-58
2021/03/22 12:40:22;;;;;;;;;;;15.70;71.80;;;;;;4937139;29;19973;-57
2021/03/22 12:42:48;;;;;;;;;;;15.80;71.80;;;;;;4936340;29;19942;-55
2021/03/22 12:45:19;;;;;;;;;;;15.80;71.80;;;;;;4937116;29;19914;-56
2021/03/22 12:47:45;;;;;;;;;;;15.90;71.70;;;;;;4937198;29;19923;-55
2021/03/22 12:50:14;;;;;;;;;;;15.80;71.70;;;;;;4937231;29;20011;-56
2021/03/22 12:52:47;;;;;;;;;;;15.90;72.20;;;;;;4936910;29;19994;-56
2021/03/22 12:55:13;;;;;;;;;;;15.90;71.40;;;;;;4937059;29;19919;-56
2021/03/22 12:57:39;;;;;;;;;;;15.90;71.40;;;;;;4936739;29;20382;-56
2021/03/22 13:00:05;;;;;;;;;;;16.00;71.30;;;;;;4936621;29;19906;-56
2021/03/22 13:02:32;;;;;;;;;;;16.00;71.50;;;;;;4936582;29;20001;-57
2021/03/22 13:04:58;;;;;;;;;;;15.90;71.60;;;;;;4936316;29;19922;-57
2021/03/22 13:07:23;;;;;;;;;;;16.20;71.70;;;;;;4936475;29;19914;-57
2021/03/22 13:09:49;;;;;;;;;;;16.10;71.60;;;;;;4936385;29;19906;-58
2021/03/22 13:12:20;;;;;;;;;;;16.00;71.60;;;;;;4935135;29;19914;-55
2021/03/22 13:14:46;;;;;;;;;;;16.20;71.40;;;;;;4935933;29;19913;-56
2021/03/22 13:17:14;;;;;;;;;;;16.30;71.80;;;;;;4936379;29;19911;-57
2021/03/22 13:19:39;;;;;;;;;;;16.50;71.70;;;;;;4919217;29;19911;-55
2021/03/22 13:22:07;;;;;;;;;;;16.30;71.40;;;;;;4936518;29;19914;-56
2021/03/22 13:24:33;;;;;;;;;;;16.60;71.30;;;;;;4936244;29;19965;-55
2021/03/22 13:26:58;;;;;;;;;;;16.80;71.80;;;;;;4936397;29;19966;-57
2021/03/22 13:29:24;;;;;;;;;;;16.80;70.90;;;;;;4936177;29;20281;-56
2021/03/22 13:31:50;;;;;;;;;;;16.80;70.80;;;;;;4919314;29;19914;-56
2021/03/22 13:34:16;;;;;;;;;;;16.90;70.70;;;;;;4935837;29;19906;-56
2021/03/22 13:36:42;;;;;;;;;;;17.00;70.70;;;;;;4935854;29;19911;-56
2021/03/22 13:39:08;;;;;;;;;;;16.80;70.40;;;;;;4936077;29;20387;-56
2021/03/22 13:41:35;;;;;;;;;;;17.00;70.30;;;;;;4936267;29;20009;-56
2021/03/22 13:44:03;;;;;;;;;;;17.40;70.20;;;;;;4935895;29;20273;-56
2021/03/22 13:46:28;;;;;;;;;;;17.20;70.10;;;;;;4935751;29;19911;-56
2021/03/22 13:48:54;;;;;;;;;;;17.20;69.90;;;;;;4935816;29;20329;-54
2021/03/22 13:51:21;;;;;;;;;;;17.30;69.80;;;;;;4936123;29;19914;-56
2021/03/22 13:53:47;;;;;;;;;;;17.30;69.90;;;;;;4935920;29;20270;-56
2021/03/22 13:56:12;;;;;;;;;;;17.00;69.70;;;;;;4936060;29;19907;-55
2021/03/22 13:58:38;;;;;;;;;;;17.70;70.20;;;;;;4935900;29;19911;-54
2021/03/22 14:01:03;;;;;;;;;;;17.40;70.10;;;;;;4935697;29;19918;-57
2021/03/22 14:03:29;;;;;;;;;;;17.00;69.80;;;;;;4936042;29;19910;-56
2021/03/22 14:05:56;;;;;;;;;;;17.10;69.90;;;;;;4935531;28;19918;-57
2021/03/22 14:08:22;;;;;;;;;;;17.20;69.80;;;;;;4935565;29;19962;-56
2021/03/22 14:10:47;;;;;;;;;;;17.20;69.80;;;;;;4935616;29;19915;-58
2021/03/22 14:13:13;;;;;;;;;;;17.20;69.70;;;;;;4935841;29;19907;-58
2021/03/22 14:15:40;;;;;;;;;;;17.20;69.50;;;;;;4935755;29;20005;-57
2021/03/22 14:18:07;;;;;;;;;;;17.00;69.50;;;;;;4935734;29;19914;-57
2021/03/22 14:20:33;;;;;;;;;;;17.20;69.60;;;;;;4935733;29;19906;-57
2021/03/22 14:23:05;;;;;;;;;;;17.10;69.50;;;;;;4935465;29;19997;-56
2021/03/22 14:25:30;;;;;;;;;;;17.10;69.40;;;;;;4935210;29;20006;-55
2021/03/22 14:27:56;;;;;;;;;;;17.30;69.50;;;;;;4935282;29;20005;-56
2021/03/22 14:30:23;;;;;;;;;;;17.10;69.30;;;;;;4935586;29;19941;-57